createdAt,value
2017-08-15T00:05:22.000Z,19
2017-08-15T00:22:09.000Z,18.7
2017-08-15T00:38:54.000Z,18.4
2017-08-15T00:55:40.000Z,18.4
2017-08-15T01:12:27.000Z,18.4
2017-08-15T01:29:12.000Z,18.1
2017-08-15T01:45:58.000Z,17.8
2017-08-15T02:02:44.000Z,17.4
2017-08-15T02:19:28.000Z,17.4
2017-08-15T02:36:14.000Z,17.4
2017-08-15T02:52:59.000Z,17.1
2017-08-15T03:09:44.000Z,17.1
2017-08-15T03:26:28.000Z,16.8
2017-08-15T03:43:12.000Z,16.8
2017-08-15T03:59:57.000Z,16.5
2017-08-15T04:16:40.000Z,16.5
2017-08-15T04:33:24.000Z,16.5
2017-08-15T04:50:09.000Z,16.5
2017-08-15T05:06:53.000Z,16.8
2017-08-15T05:23:37.000Z,17.1
2017-08-15T05:40:22.000Z,17.4
2017-08-15T05:53:47.000Z,18.1
2017-08-15T06:07:11.000Z,18.7
2017-08-15T06:20:37.000Z,19.4
2017-08-15T06:30:42.000Z,20
2017-08-15T06:47:29.000Z,20.6
2017-08-15T07:00:55.000Z,21.3
2017-08-15T07:04:17.000Z,21.9
2017-08-15T07:11:00.000Z,22.6
2017-08-15T07:17:45.000Z,23.2
2017-08-15T07:34:35.000Z,22.9
2017-08-15T07:48:03.000Z,23.5
2017-08-15T08:01:32.000Z,24.2
2017-08-15T08:15:02.000Z,24.8
2017-08-15T08:28:31.000Z,25.4
2017-08-15T08:45:24.000Z,25.8
2017-08-15T09:02:18.000Z,25.8
2017-08-15T09:19:10.000Z,25.8
2017-08-15T09:36:04.000Z,26.1
2017-08-15T09:52:58.000Z,26.1
2017-08-15T10:09:52.000Z,26.4
2017-08-15T10:26:46.000Z,26.4
2017-08-15T10:43:41.000Z,26.4
2017-08-15T10:52:07.000Z,25.8
2017-08-15T11:09:00.000Z,25.8
2017-08-15T11:17:27.000Z,26.4
2017-08-15T11:34:22.000Z,26.4
2017-08-15T11:51:16.000Z,26.7
2017-08-15T12:08:11.000Z,26.7
2017-08-15T12:20:01.000Z,27.4
2017-08-15T12:36:57.000Z,27
2017-08-15T12:53:51.000Z,27
2017-08-15T13:10:46.000Z,26.7
2017-08-15T13:27:40.000Z,27
2017-08-15T13:42:54.000Z,27.4
2017-08-15T13:59:49.000Z,27.7
2017-08-15T14:16:45.000Z,27.7
2017-08-15T14:33:40.000Z,27.4
2017-08-15T14:50:36.000Z,27
2017-08-15T15:04:07.000Z,26.4
2017-08-15T15:21:00.000Z,26.1
2017-08-15T15:37:53.000Z,25.8
2017-08-15T15:54:45.000Z,25.4
2017-08-15T16:04:53.000Z,24.8
2017-08-15T16:21:44.000Z,24.8
2017-08-15T16:38:37.000Z,24.2
2017-08-15T16:52:06.000Z,23.8
2017-08-15T17:08:56.000Z,23.5
2017-08-15T17:25:46.000Z,23.2
2017-08-15T17:42:37.000Z,23.2
2017-08-15T17:59:27.000Z,23.8
2017-08-15T18:16:18.000Z,23.2
2017-08-15T18:33:09.000Z,22.6
2017-08-15T18:49:58.000Z,22.2
2017-08-15T19:06:47.000Z,22.2
2017-08-15T19:23:36.000Z,21.9
2017-08-15T19:40:25.000Z,21.9
2017-08-15T19:57:15.000Z,21.9
2017-08-15T20:14:03.000Z,21.6
2017-08-15T20:30:52.000Z,21.3
2017-08-15T20:47:41.000Z,21
2017-08-15T21:38:04.000Z,20.3
2017-08-15T21:54:53.000Z,20
2017-08-15T22:11:40.000Z,20
2017-08-15T22:28:27.000Z,19.7
2017-08-15T23:02:01.000Z,19.4
2017-08-15T23:18:47.000Z,19.4
2017-08-15T23:35:35.000Z,19
2017-08-15T23:52:21.000Z,19
